Terminal Aerodrome Forecast
Issued by NWS

Home | Current Version | Previous Version | Text Only | Print | Product List | Glossary Off
Versions: 1 2 3 4 5 6 7 8 9 10 11 12 13 14

000
FTUS45 KGGW 151722
TAFSDY
TAF
KSDY 151722Z 1518/1618 29016KT P6SM SKC
     FM160000 25005KT P6SM SKC
     FM160900 22009KT P6SM SKC
     FM161700 27013KT P6SM FEW150=

USA.gov is the U.S. government's official web portal to all federal, state and local government web resources and services.